Hlavní strana
METAR-TAF:

METAR-TAF

Letiště :

Letiště Vodochody

Praha, Česká republika

zeměpisná šířka: 50-12-59N, zeměpisná délka: 014-23-42E, výška: 280 m

Aktuální stav počasí

Zpráva byla vytvořena před 1 hodinou a 32 minutami, v 15:00 UTC
vítr z různých směrů 2 kt
Teplota 3°C
Vlhkost vzduchu 87%
Tlak 1032 hPa
Viditelnost: 0600 m
Částečně pokryté mlhou

METAR: LKVO 161500Z VRB02KT 9000 0600W PRFG NSC 03/01 Q1032

Čas: 17:32 (16:32 UTC)


TAF: chybějící

Stav a předpovědi počasí z více než 4 000 letišť (zprávy METAR a TAF).

Červené a žluté tečky na mapě představují dostupné meteorologické stanice.

Když kurzor umístíte na tečku, zobrazí se název stanice.

Pak kliknutím zobrazíte stav a předpověď počasí.

Chcete-li změnit mapu, kliknutím na zelené tlačítko se znaménkem +mapu přiblížíte, kliknutím na zelené tlačítko se znaménkem – mapu oddálíte a kliknutím na zelené šipky přejdete na sousední mapy.


METAR-TAF: